sensor_id;sensor_type;location;lat;lon;timestamp;P1;durP1;ratioP1;P2;durP2;ratioP2
36241;SDS011;22283;42.748;12.732;2023-09-08T00:01:00;11.10;;;5.68;;
36241;SDS011;22283;42.748;12.732;2023-09-08T00:06:00;8.00;;;5.88;;
36241;SDS011;22283;42.748;12.732;2023-09-08T00:11:01;7.97;;;5.75;;
36241;SDS011;22283;42.748;12.732;2023-09-08T00:16:02;11.83;;;6.10;;
36241;SDS011;22283;42.748;12.732;2023-09-08T00:21:03;8.85;;;6.45;;
36241;SDS011;22283;42.748;12.732;2023-09-08T00:26:03;9.90;;;5.67;;
36241;SDS011;22283;42.748;12.732;2023-09-08T00:31:04;7.23;;;5.60;;
36241;SDS011;22283;42.748;12.732;2023-09-08T00:36:05;7.97;;;5.43;;
36241;SDS011;22283;42.748;12.732;2023-09-08T00:41:06;6.65;;;5.63;;
36241;SDS011;22283;42.748;12.732;2023-09-08T00:46:07;9.35;;;5.70;;
36241;SDS011;22283;42.748;12.732;2023-09-08T00:51:08;8.80;;;5.82;;
36241;SDS011;22283;42.748;12.732;2023-09-08T00:56:13;9.23;;;5.40;;
36241;SDS011;22283;42.748;12.732;2023-09-08T01:01:14;7.93;;;5.97;;
36241;SDS011;22283;42.748;12.732;2023-09-08T01:06:14;7.47;;;6.17;;
36241;SDS011;22283;42.748;12.732;2023-09-08T01:11:17;8.20;;;5.47;;
36241;SDS011;22283;42.748;12.732;2023-09-08T01:16:19;15.05;;;6.22;;
36241;SDS011;22283;42.748;12.732;2023-09-08T01:26:51;8.75;;;6.10;;
36241;SDS011;22283;42.748;12.732;2023-09-08T01:31:53;8.00;;;5.70;;
36241;SDS011;22283;42.748;12.732;2023-09-08T01:36:54;7.25;;;6.30;;
36241;SDS011;22283;42.748;12.732;2023-09-08T01:41:54;8.57;;;6.13;;
36241;SDS011;22283;42.748;12.732;2023-09-08T01:46:55;9.57;;;6.28;;
36241;SDS011;22283;42.748;12.732;2023-09-08T01:51:57;12.55;;;6.50;;
36241;SDS011;22283;42.748;12.732;2023-09-08T01:56:58;9.30;;;6.25;;
36241;SDS011;22283;42.748;12.732;2023-09-08T02:01:59;8.05;;;6.43;;
36241;SDS011;22283;42.748;12.732;2023-09-08T02:06:59;8.70;;;6.27;;
36241;SDS011;22283;42.748;12.732;2023-09-08T02:12:00;7.60;;;6.70;;
36241;SDS011;22283;42.748;12.732;2023-09-08T02:17:03;8.13;;;6.85;;
36241;SDS011;22283;42.748;12.732;2023-09-08T02:22:03;9.50;;;6.47;;
36241;SDS011;22283;42.748;12.732;2023-09-08T02:27:04;6.50;;;5.80;;
36241;SDS011;22283;42.748;12.732;2023-09-08T02:32:05;9.13;;;6.25;;
36241;SDS011;22283;42.748;12.732;2023-09-08T02:37:05;11.50;;;6.97;;
36241;SDS011;22283;42.748;12.732;2023-09-08T02:42:07;11.07;;;6.18;;
36241;SDS011;22283;42.748;12.732;2023-09-08T02:47:08;8.98;;;6.68;;
36241;SDS011;22283;42.748;12.732;2023-09-08T02:52:12;11.93;;;7.57;;
36241;SDS011;22283;42.748;12.732;2023-09-08T02:57:12;7.45;;;6.65;;
36241;SDS011;22283;42.748;12.732;2023-09-08T03:07:15;11.77;;;7.35;;
36241;SDS011;22283;42.748;12.732;2023-09-08T03:12:16;10.73;;;7.32;;
36241;SDS011;22283;42.748;12.732;2023-09-08T03:17:17;8.73;;;7.83;;
36241;SDS011;22283;42.748;12.732;2023-09-08T03:22:18;12.70;;;7.85;;
36241;SDS011;22283;42.748;12.732;2023-09-08T03:27:19;13.27;;;8.40;;
36241;SDS011;22283;42.748;12.732;2023-09-08T03:32:19;9.00;;;7.33;;
36241;SDS011;22283;42.748;12.732;2023-09-08T03:37:20;13.47;;;7.70;;
36241;SDS011;22283;42.748;12.732;2023-09-08T03:42:23;8.73;;;7.18;;
36241;SDS011;22283;42.748;12.732;2023-09-08T03:47:23;10.63;;;8.47;;
36241;SDS011;22283;42.748;12.732;2023-09-08T03:57:26;10.73;;;7.05;;
36241;SDS011;22283;42.748;12.732;2023-09-08T04:02:27;12.20;;;7.63;;
36241;SDS011;22283;42.748;12.732;2023-09-08T04:07:27;15.63;;;8.37;;
36241;SDS011;22283;42.748;12.732;2023-09-08T04:12:28;11.73;;;8.45;;
36241;SDS011;22283;42.748;12.732;2023-09-08T04:17:29;14.88;;;8.40;;
36241;SDS011;22283;42.748;12.732;2023-09-08T04:22:30;16.40;;;7.40;;
36241;SDS011;22283;42.748;12.732;2023-09-08T04:27:32;11.70;;;8.40;;
36241;SDS011;22283;42.748;12.732;2023-09-08T04:32:33;11.63;;;8.67;;
36241;SDS011;22283;42.748;12.732;2023-09-08T04:37:34;9.53;;;8.53;;
36241;SDS011;22283;42.748;12.732;2023-09-08T04:42:34;15.07;;;9.70;;
36241;SDS011;22283;42.748;12.732;2023-09-08T04:47:36;12.95;;;9.25;;
36241;SDS011;22283;42.748;12.732;2023-09-08T04:52:38;14.07;;;8.02;;
36241;SDS011;22283;42.748;12.732;2023-09-08T04:57:39;10.93;;;7.95;;
36241;SDS011;22283;42.748;12.732;2023-09-08T05:02:40;16.55;;;9.35;;
36241;SDS011;22283;42.748;12.732;2023-09-08T05:07:41;13.27;;;8.75;;
36241;SDS011;22283;42.748;12.732;2023-09-08T05:12:42;11.03;;;8.13;;
36241;SDS011;22283;42.748;12.732;2023-09-08T05:17:43;15.57;;;8.25;;
36241;SDS011;22283;42.748;12.732;2023-09-08T05:22:45;14.65;;;8.00;;
36241;SDS011;22283;42.748;12.732;2023-09-08T05:32:47;9.30;;;6.50;;
36241;SDS011;22283;42.748;12.732;2023-09-08T05:37:48;8.00;;;7.03;;
36241;SDS011;22283;42.748;12.732;2023-09-08T05:42:48;17.90;;;7.03;;
36241;SDS011;22283;42.748;12.732;2023-09-08T05:47:50;13.32;;;7.05;;
36241;SDS011;22283;42.748;12.732;2023-09-08T05:52:52;11.35;;;7.38;;
36241;SDS011;22283;42.748;12.732;2023-09-08T05:57:53;16.38;;;7.28;;
36241;SDS011;22283;42.748;12.732;2023-09-08T06:02:54;15.68;;;7.72;;
36241;SDS011;22283;42.748;12.732;2023-09-08T06:07:55;10.13;;;6.68;;
36241;SDS011;22283;42.748;12.732;2023-09-08T06:12:56;22.40;;;7.63;;
36241;SDS011;22283;42.748;12.732;2023-09-08T06:17:57;16.27;;;7.53;;
36241;SDS011;22283;42.748;12.732;2023-09-08T06:22:58;9.75;;;6.53;;
36241;SDS011;22283;42.748;12.732;2023-09-08T06:27:59;16.25;;;7.57;;
36241;SDS011;22283;42.748;12.732;2023-09-08T06:33:01;14.88;;;6.80;;
36241;SDS011;22283;42.748;12.732;2023-09-08T06:38:02;9.75;;;5.88;;
36241;SDS011;22283;42.748;12.732;2023-09-08T06:43:03;10.70;;;6.18;;
36241;SDS011;22283;42.748;12.732;2023-09-08T06:48:33;15.50;;;6.80;;
36241;SDS011;22283;42.748;12.732;2023-09-08T06:53:35;28.55;;;6.38;;
36241;SDS011;22283;42.748;12.732;2023-09-08T06:58:36;10.23;;;6.22;;
36241;SDS011;22283;42.748;12.732;2023-09-08T07:03:38;12.05;;;5.65;;
36241;SDS011;22283;42.748;12.732;2023-09-08T07:08:40;12.75;;;6.22;;
36241;SDS011;22283;42.748;12.732;2023-09-08T07:13:41;9.68;;;6.05;;
36241;SDS011;22283;42.748;12.732;2023-09-08T07:18:42;13.75;;;6.10;;
36241;SDS011;22283;42.748;12.732;2023-09-08T07:23:43;9.70;;;6.00;;
36241;SDS011;22283;42.748;12.732;2023-09-08T07:28:47;12.60;;;6.55;;
36241;SDS011;22283;42.748;12.732;2023-09-08T07:33:49;10.75;;;5.82;;
36241;SDS011;22283;42.748;12.732;2023-09-08T07:38:50;8.30;;;5.97;;
36241;SDS011;22283;42.748;12.732;2023-09-08T07:43:51;17.33;;;6.25;;
36241;SDS011;22283;42.748;12.732;2023-09-08T07:48:57;11.82;;;6.40;;
36241;SDS011;22283;42.748;12.732;2023-09-08T07:53:58;6.85;;;5.72;;
36241;SDS011;22283;42.748;12.732;2023-09-08T07:58:59;11.20;;;6.45;;
36241;SDS011;22283;42.748;12.732;2023-09-08T08:04:00;15.48;;;6.90;;
36241;SDS011;22283;42.748;12.732;2023-09-08T08:09:03;9.77;;;7.20;;
36241;SDS011;22283;42.748;12.732;2023-09-08T08:14:04;16.02;;;7.22;;
36241;SDS011;22283;42.748;12.732;2023-09-08T08:19:04;10.07;;;6.47;;
36241;SDS011;22283;42.748;12.732;2023-09-08T08:24:05;10.88;;;6.63;;
36241;SDS011;22283;42.748;12.732;2023-09-08T08:29:06;9.18;;;6.25;;
36241;SDS011;22283;42.748;12.732;2023-09-08T08:34:07;19.52;;;8.23;;
36241;SDS011;22283;42.748;12.732;2023-09-08T08:39:09;12.88;;;6.75;;
36241;SDS011;22283;42.748;12.732;2023-09-08T08:44:10;10.15;;;7.25;;
36241;SDS011;22283;42.748;12.732;2023-09-08T08:49:10;15.20;;;7.50;;
36241;SDS011;22283;42.748;12.732;2023-09-08T08:54:13;12.05;;;6.47;;
36241;SDS011;22283;42.748;12.732;2023-09-08T08:59:14;18.27;;;7.13;;
36241;SDS011;22283;42.748;12.732;2023-09-08T09:04:15;15.43;;;6.60;;
36241;SDS011;22283;42.748;12.732;2023-09-08T09:09:16;17.05;;;6.85;;
36241;SDS011;22283;42.748;12.732;2023-09-08T09:14:17;15.77;;;7.05;;
36241;SDS011;22283;42.748;12.732;2023-09-08T09:19:20;18.05;;;7.70;;
36241;SDS011;22283;42.748;12.732;2023-09-08T09:29:43;12.10;;;7.18;;
36241;SDS011;22283;42.748;12.732;2023-09-08T09:34:52;10.95;;;6.82;;
36241;SDS011;22283;42.748;12.732;2023-09-08T09:39:54;10.68;;;6.47;;
36241;SDS011;22283;42.748;12.732;2023-09-08T09:44:55;14.05;;;6.88;;
36241;SDS011;22283;42.748;12.732;2023-09-08T09:49:56;13.40;;;6.35;;
36241;SDS011;22283;42.748;12.732;2023-09-08T09:54:58;13.32;;;6.65;;
36241;SDS011;22283;42.748;12.732;2023-09-08T09:59:59;13.55;;;6.57;;
36241;SDS011;22283;42.748;12.732;2023-09-08T10:05:12;9.93;;;6.22;;
36241;SDS011;22283;42.748;12.732;2023-09-08T10:10:13;14.02;;;6.13;;
36241;SDS011;22283;42.748;12.732;2023-09-08T10:15:16;13.48;;;6.20;;
36241;SDS011;22283;42.748;12.732;2023-09-08T10:20:22;32.05;;;7.65;;
36241;SDS011;22283;42.748;12.732;2023-09-08T10:25:27;10.52;;;6.30;;
36241;SDS011;22283;42.748;12.732;2023-09-08T10:30:32;13.88;;;6.28;;
36241;SDS011;22283;42.748;12.732;2023-09-08T10:35:33;15.15;;;6.85;;
36241;SDS011;22283;42.748;12.732;2023-09-08T10:40:33;12.30;;;6.55;;
36241;SDS011;22283;42.748;12.732;2023-09-08T10:45:34;13.35;;;6.32;;
36241;SDS011;22283;42.748;12.732;2023-09-08T10:50:38;9.00;;;6.05;;
36241;SDS011;22283;42.748;12.732;2023-09-08T11:00:51;13.32;;;5.00;;
36241;SDS011;22283;42.748;12.732;2023-09-08T11:05:56;11.85;;;5.70;;
36241;SDS011;22283;42.748;12.732;2023-09-08T11:10:57;10.77;;;4.93;;
36241;SDS011;22283;42.748;12.732;2023-09-08T11:15:58;7.43;;;5.18;;
36241;SDS011;22283;42.748;12.732;2023-09-08T11:21:00;12.02;;;5.13;;
36241;SDS011;22283;42.748;12.732;2023-09-08T11:26:04;13.00;;;5.60;;
36241;SDS011;22283;42.748;12.732;2023-09-08T11:31:06;8.88;;;5.53;;
36241;SDS011;22283;42.748;12.732;2023-09-08T11:36:14;23.83;;;7.70;;
36241;SDS011;22283;42.748;12.732;2023-09-08T11:41:15;11.05;;;5.32;;
36241;SDS011;22283;42.748;12.732;2023-09-08T11:46:17;10.82;;;5.18;;
36241;SDS011;22283;42.748;12.732;2023-09-08T11:51:22;8.07;;;5.15;;
36241;SDS011;22283;42.748;12.732;2023-09-08T11:56:23;7.97;;;5.05;;
36241;SDS011;22283;42.748;12.732;2023-09-08T12:01:24;12.45;;;5.72;;
36241;SDS011;22283;42.748;12.732;2023-09-08T12:06:25;12.80;;;5.70;;
36241;SDS011;22283;42.748;12.732;2023-09-08T12:11:31;11.60;;;5.68;;
36241;SDS011;22283;42.748;12.732;2023-09-08T12:16:35;11.55;;;5.75;;
36241;SDS011;22283;42.748;12.732;2023-09-08T12:21:53;10.38;;;5.43;;
36241;SDS011;22283;42.748;12.732;2023-09-08T12:26:55;15.57;;;5.38;;
36241;SDS011;22283;42.748;12.732;2023-09-08T12:31:56;11.57;;;6.18;;
36241;SDS011;22283;42.748;12.732;2023-09-08T12:36:57;8.95;;;5.03;;
36241;SDS011;22283;42.748;12.732;2023-09-08T12:41:58;8.70;;;5.15;;
36241;SDS011;22283;42.748;12.732;2023-09-08T12:46:58;6.95;;;5.40;;
36241;SDS011;22283;42.748;12.732;2023-09-08T12:51:59;7.30;;;5.35;;
36241;SDS011;22283;42.748;12.732;2023-09-08T12:56:59;10.23;;;6.22;;
36241;SDS011;22283;42.748;12.732;2023-09-08T13:02:00;12.48;;;5.80;;
36241;SDS011;22283;42.748;12.732;2023-09-08T13:07:02;16.20;;;5.75;;
36241;SDS011;22283;42.748;12.732;2023-09-08T13:12:03;7.28;;;5.35;;
36241;SDS011;22283;42.748;12.732;2023-09-08T13:17:03;13.90;;;5.78;;
36241;SDS011;22283;42.748;12.732;2023-09-08T13:22:04;16.60;;;6.18;;
36241;SDS011;22283;42.748;12.732;2023-09-08T13:27:05;98.40;;;10.25;;
36241;SDS011;22283;42.748;12.732;2023-09-08T13:32:06;8.43;;;5.20;;
36241;SDS011;22283;42.748;12.732;2023-09-08T13:37:07;8.55;;;5.50;;
36241;SDS011;22283;42.748;12.732;2023-09-08T13:42:08;26.20;;;6.50;;
36241;SDS011;22283;42.748;12.732;2023-09-08T13:47:08;12.35;;;5.75;;
36241;SDS011;22283;42.748;12.732;2023-09-08T13:52:09;14.48;;;5.50;;
36241;SDS011;22283;42.748;12.732;2023-09-08T13:57:10;8.82;;;4.70;;
36241;SDS011;22283;42.748;12.732;2023-09-08T14:02:10;12.20;;;5.85;;
36241;SDS011;22283;42.748;12.732;2023-09-08T14:07:11;21.63;;;6.00;;
36241;SDS011;22283;42.748;12.732;2023-09-08T14:12:12;8.65;;;4.65;;
36241;SDS011;22283;42.748;12.732;2023-09-08T14:17:18;8.70;;;5.35;;
36241;SDS011;22283;42.748;12.732;2023-09-08T14:22:19;11.40;;;5.35;;
36241;SDS011;22283;42.748;12.732;2023-09-08T14:27:20;16.50;;;5.30;;
36241;SDS011;22283;42.748;12.732;2023-09-08T14:32:20;10.00;;;5.70;;
36241;SDS011;22283;42.748;12.732;2023-09-08T14:37:21;23.85;;;6.72;;
36241;SDS011;22283;42.748;12.732;2023-09-08T14:42:22;7.53;;;5.60;;
36241;SDS011;22283;42.748;12.732;2023-09-08T14:47:23;8.07;;;5.53;;
36241;SDS011;22283;42.748;12.732;2023-09-08T14:52:24;13.30;;;5.10;;
36241;SDS011;22283;42.748;12.732;2023-09-08T14:57:24;17.60;;;5.05;;
36241;SDS011;22283;42.748;12.732;2023-09-08T15:02:26;24.95;;;5.95;;
36241;SDS011;22283;42.748;12.732;2023-09-08T15:07:27;11.43;;;5.43;;
36241;SDS011;22283;42.748;12.732;2023-09-08T15:12:27;9.25;;;5.53;;
36241;SDS011;22283;42.748;12.732;2023-09-08T15:17:28;13.02;;;6.00;;
36241;SDS011;22283;42.748;12.732;2023-09-08T15:22:29;16.67;;;5.63;;
36241;SDS011;22283;42.748;12.732;2023-09-08T15:27:30;13.02;;;5.57;;
36241;SDS011;22283;42.748;12.732;2023-09-08T15:32:31;10.40;;;5.72;;
36241;SDS011;22283;42.748;12.732;2023-09-08T15:37:32;8.80;;;5.40;;
36241;SDS011;22283;42.748;12.732;2023-09-08T15:42:33;15.65;;;5.63;;
36241;SDS011;22283;42.748;12.732;2023-09-08T15:47:34;10.18;;;5.93;;
36241;SDS011;22283;42.748;12.732;2023-09-08T15:52:34;8.95;;;5.55;;
36241;SDS011;22283;42.748;12.732;2023-09-08T15:57:36;10.30;;;6.13;;
36241;SDS011;22283;42.748;12.732;2023-09-08T16:02:36;11.27;;;5.65;;
36241;SDS011;22283;42.748;12.732;2023-09-08T16:07:37;12.52;;;6.15;;
36241;SDS011;22283;42.748;12.732;2023-09-08T16:12:39;8.80;;;5.50;;
36241;SDS011;22283;42.748;12.732;2023-09-08T16:17:40;11.48;;;5.40;;
36241;SDS011;22283;42.748;12.732;2023-09-08T16:22:40;16.38;;;6.00;;
36241;SDS011;22283;42.748;12.732;2023-09-08T16:27:41;9.82;;;6.00;;
36241;SDS011;22283;42.748;12.732;2023-09-08T16:32:42;12.20;;;5.55;;
36241;SDS011;22283;42.748;12.732;2023-09-08T16:37:42;15.82;;;5.80;;
36241;SDS011;22283;42.748;12.732;2023-09-08T16:42:43;13.82;;;5.75;;
36241;SDS011;22283;42.748;12.732;2023-09-08T16:47:44;14.13;;;6.15;;
36241;SDS011;22283;42.748;12.732;2023-09-08T16:52:45;13.70;;;5.63;;
36241;SDS011;22283;42.748;12.732;2023-09-08T16:57:45;11.18;;;5.75;;
36241;SDS011;22283;42.748;12.732;2023-09-08T17:02:46;8.48;;;5.60;;
36241;SDS011;22283;42.748;12.732;2023-09-08T17:07:47;8.52;;;6.07;;
36241;SDS011;22283;42.748;12.732;2023-09-08T17:12:48;14.27;;;5.45;;
36241;SDS011;22283;42.748;12.732;2023-09-08T17:17:49;13.20;;;5.63;;
36241;SDS011;22283;42.748;12.732;2023-09-08T17:22:49;8.32;;;5.45;;
36241;SDS011;22283;42.748;12.732;2023-09-08T17:27:51;9.50;;;5.15;;
36241;SDS011;22283;42.748;12.732;2023-09-08T17:32:52;11.02;;;5.80;;
36241;SDS011;22283;42.748;12.732;2023-09-08T17:37:52;11.07;;;5.30;;
36241;SDS011;22283;42.748;12.732;2023-09-08T17:42:54;11.30;;;5.43;;
36241;SDS011;22283;42.748;12.732;2023-09-08T17:47:55;13.95;;;5.30;;
36241;SDS011;22283;42.748;12.732;2023-09-08T17:52:55;8.82;;;5.47;;
36241;SDS011;22283;42.748;12.732;2023-09-08T17:57:56;14.38;;;6.45;;
36241;SDS011;22283;42.748;12.732;2023-09-08T18:02:57;18.30;;;5.32;;
36241;SDS011;22283;42.748;12.732;2023-09-08T18:07:59;18.88;;;5.65;;
36241;SDS011;22283;42.748;12.732;2023-09-08T18:12:59;13.73;;;6.15;;
36241;SDS011;22283;42.748;12.732;2023-09-08T18:18:00;21.23;;;6.63;;
36241;SDS011;22283;42.748;12.732;2023-09-08T18:23:01;32.63;;;7.38;;
36241;SDS011;22283;42.748;12.732;2023-09-08T18:28:01;13.23;;;6.15;;
36241;SDS011;22283;42.748;12.732;2023-09-08T18:33:02;19.90;;;6.32;;
36241;SDS011;22283;42.748;12.732;2023-09-08T18:38:03;8.00;;;5.60;;
36241;SDS011;22283;42.748;12.732;2023-09-08T18:43:04;9.93;;;5.38;;
36241;SDS011;22283;42.748;12.732;2023-09-08T18:48:05;16.05;;;6.93;;
36241;SDS011;22283;42.748;12.732;2023-09-08T18:53:06;22.77;;;6.40;;
36241;SDS011;22283;42.748;12.732;2023-09-08T19:03:08;9.15;;;6.45;;
36241;SDS011;22283;42.748;12.732;2023-09-08T19:08:08;14.10;;;7.15;;
36241;SDS011;22283;42.748;12.732;2023-09-08T19:18:09;10.00;;;5.97;;
36241;SDS011;22283;42.748;12.732;2023-09-08T19:28:11;18.65;;;5.97;;
36241;SDS011;22283;42.748;12.732;2023-09-08T19:38:12;21.08;;;6.60;;
36241;SDS011;22283;42.748;12.732;2023-09-08T19:48:13;8.40;;;6.07;;
36241;SDS011;22283;42.748;12.732;2023-09-08T19:58:16;11.52;;;6.25;;
36241;SDS011;22283;42.748;12.732;2023-09-08T20:08:17;8.55;;;6.00;;
36241;SDS011;22283;42.748;12.732;2023-09-08T20:13:18;11.20;;;6.90;;
36241;SDS011;22283;42.748;12.732;2023-09-08T20:18:19;14.50;;;6.68;;
36241;SDS011;22283;42.748;12.732;2023-09-08T20:23:20;19.67;;;6.45;;
36241;SDS011;22283;42.748;12.732;2023-09-08T20:33:22;11.65;;;6.65;;
36241;SDS011;22283;42.748;12.732;2023-09-08T20:38:22;9.05;;;5.95;;
36241;SDS011;22283;42.748;12.732;2023-09-08T20:43:23;18.20;;;7.40;;
36241;SDS011;22283;42.748;12.732;2023-09-08T20:48:24;8.02;;;5.93;;
36241;SDS011;22283;42.748;12.732;2023-09-08T20:53:25;17.00;;;6.70;;
36241;SDS011;22283;42.748;12.732;2023-09-08T20:58:25;12.57;;;7.00;;
36241;SDS011;22283;42.748;12.732;2023-09-08T21:03:26;10.88;;;6.30;;
36241;SDS011;22283;42.748;12.732;2023-09-08T21:08:28;14.77;;;6.40;;
36241;SDS011;22283;42.748;12.732;2023-09-08T21:13:32;12.13;;;5.90;;
36241;SDS011;22283;42.748;12.732;2023-09-08T21:18:33;11.95;;;6.55;;
36241;SDS011;22283;42.748;12.732;2023-09-08T21:23:34;17.17;;;5.88;;
36241;SDS011;22283;42.748;12.732;2023-09-08T21:28:35;17.00;;;6.07;;
36241;SDS011;22283;42.748;12.732;2023-09-08T21:33:35;11.45;;;6.05;;
36241;SDS011;22283;42.748;12.732;2023-09-08T21:38:37;12.60;;;5.93;;
36241;SDS011;22283;42.748;12.732;2023-09-08T21:43:38;9.50;;;5.50;;
36241;SDS011;22283;42.748;12.732;2023-09-08T21:48:38;11.52;;;5.70;;
36241;SDS011;22283;42.748;12.732;2023-09-08T21:53:39;9.82;;;6.03;;
36241;SDS011;22283;42.748;12.732;2023-09-08T21:58:40;10.40;;;6.35;;
36241;SDS011;22283;42.748;12.732;2023-09-08T22:03:40;13.38;;;6.75;;
36241;SDS011;22283;42.748;12.732;2023-09-08T22:08:44;12.00;;;6.50;;
36241;SDS011;22283;42.748;12.732;2023-09-08T22:13:46;13.82;;;6.45;;
36241;SDS011;22283;42.748;12.732;2023-09-08T22:18:46;11.95;;;7.40;;
36241;SDS011;22283;42.748;12.732;2023-09-08T22:23:48;7.45;;;6.60;;
36241;SDS011;22283;42.748;12.732;2023-09-08T22:28:51;14.93;;;6.60;;
36241;SDS011;22283;42.748;12.732;2023-09-08T22:33:51;15.20;;;7.38;;
36241;SDS011;22283;42.748;12.732;2023-09-08T22:38:52;13.63;;;6.50;;
36241;SDS011;22283;42.748;12.732;2023-09-08T22:43:53;13.00;;;6.40;;
36241;SDS011;22283;42.748;12.732;2023-09-08T22:48:55;12.43;;;6.85;;
36241;SDS011;22283;42.748;12.732;2023-09-08T22:53:56;17.07;;;8.40;;
36241;SDS011;22283;42.748;12.732;2023-09-08T22:58:56;9.53;;;6.63;;
36241;SDS011;22283;42.748;12.732;2023-09-08T23:03:57;9.07;;;6.30;;
36241;SDS011;22283;42.748;12.732;2023-09-08T23:08:58;8.63;;;6.53;;
36241;SDS011;22283;42.748;12.732;2023-09-08T23:13:58;13.43;;;7.43;;
36241;SDS011;22283;42.748;12.732;2023-09-08T23:18:59;9.00;;;7.28;;
36241;SDS011;22283;42.748;12.732;2023-09-08T23:23:59;8.83;;;6.43;;
36241;SDS011;22283;42.748;12.732;2023-09-08T23:29:00;9.03;;;7.20;;
36241;SDS011;22283;42.748;12.732;2023-09-08T23:34:01;13.35;;;6.95;;
36241;SDS011;22283;42.748;12.732;2023-09-08T23:44:04;9.70;;;6.35;;
36241;SDS011;22283;42.748;12.732;2023-09-08T23:49:06;11.48;;;7.45;;
36241;SDS011;22283;42.748;12.732;2023-09-08T23:54:06;15.10;;;7.85;;
36241;SDS011;22283;42.748;12.732;2023-09-08T23:59:07;13.55;;;7.85;;
